Aeroporto :
LOGIN :

Iscrizione | Disclaimer

   EN    FR    IT 

 










Sommario :    VFR   VFR Marginale   IFR   IFR Intensivo   IFR Molto Intensivo
Visibilità : 
Base nubi : 
>= 8 km
>= 3000ft
5 / 8 km
1000 / 3000 ft
1500m / 5 km
500 / 1000 ft
800 / 1500m
200 / 500 ft
< 800m
< 200 ft
Simboli :   Temporali  Nebbia  Neve Forte  Precipitazioni Forti  Vento > 20 kt
SIGMETs :   Varie  Temporali  Ghiacco  Turbolenza  Onda orograficha  Ceneri Vulcaniche






- Altitudine del aeroporto : 353 ft
- Codice IATA : LIN


LIML - Milano Linate

ULTIMO METAR :
  • 151320Z 15008KT 100V190 CAVOK 32/16 Q1013 NOSIG

METARs OBSOLETI :
  • 151250Z 10005KT 040V150 CAVOK 32/16 Q1013 NOSIG
  • 151220Z 19006KT 140V230 CAVOK 31/18 Q1013 NOSIG
  • 151150Z 16006KT 120V200 CAVOK 31/17 Q1013 NOSIG
  • 151120Z 16005KT 070V230 CAVOK 31/18 Q1014 NOSIG
  • 151050Z VRB03KT CAVOK 30/18 Q1014 NOSIG
  • 151020Z 16005KT 060V210 CAVOK 30/17 Q1014 NOSIG
  • 150950Z 16004KT 090V260 CAVOK 30/17 Q1014 NOSIG
  • 150920Z 16004KT 040V190 CAVOK 29/17 Q1014 NOSIG
  • 150850Z VRB04KT CAVOK 28/18 Q1014 NOSIG

TAF TAF LIML
Valido dal 15 a 12 ore il 16 a 12 ore UTC


151100Z 1512/1612 VRB05KT CAVOK



MetMap, La meteo Aeronautica in un colpo d'occhio ! - Copyright ORBIFLY Dicembre 2007 - Disclaimer

ORBIFLY MET'MAP TEAM :

Programmazione e sviluppo : Alexandra Zaïnal
Concezione : Baudouin d'Aumeries
Supporto tecnico e logistico : Manuel Goepfert
Aiuto : Marc-Olivier Méhu
Aiuto per la traduzione : Arnaldo La Scala




FONTI E CREDITI :

   NOAA